sensor_id;sensor_type;location;lat;lon;timestamp;pressure;altitude;pressure_sealevel;temperature;humidity
66543;BME280;53395;37.360;-122.046;2022-09-03T00:00:25;100599.88;;;25.91;55.48
66543;BME280;53395;37.360;-122.046;2022-09-03T00:11:32;100605.78;;;25.73;53.88
66543;BME280;53395;37.360;-122.046;2022-09-03T00:14:04;100603.84;;;25.76;54.46
66543;BME280;53395;37.360;-122.046;2022-09-03T00:16:59;100607.59;;;25.20;56.21
66543;BME280;53395;37.360;-122.046;2022-09-03T00:19:34;100605.84;;;25.30;55.93
66543;BME280;53395;37.360;-122.046;2022-09-03T00:22:07;100606.50;;;25.22;57.56
66543;BME280;53395;37.360;-122.046;2022-09-03T00:24:38;100611.03;;;25.43;56.29
66543;BME280;53395;37.360;-122.046;2022-09-03T00:27:14;100611.66;;;24.80;59.05
66543;BME280;53395;37.360;-122.046;2022-09-03T00:29:49;100613.22;;;24.72;58.26
66543;BME280;53395;37.360;-122.046;2022-09-03T00:32:26;100607.50;;;24.99;57.90
66543;BME280;53395;37.360;-122.046;2022-09-03T00:35:01;100607.28;;;24.91;55.72
66543;BME280;53395;37.360;-122.046;2022-09-03T00:37:28;100606.88;;;25.18;54.74
66543;BME280;53395;37.360;-122.046;2022-09-03T00:39:57;100616.25;;;24.78;53.40
66543;BME280;53395;37.360;-122.046;2022-09-03T00:42:38;100616.88;;;24.82;52.61
66543;BME280;53395;37.360;-122.046;2022-09-03T00:45:21;100619.06;;;24.77;53.25
66543;BME280;53395;37.360;-122.046;2022-09-03T00:53:41;100616.25;;;24.44;53.75
66543;BME280;53395;37.360;-122.046;2022-09-03T00:56:31;100621.69;;;24.20;56.33
66543;BME280;53395;37.360;-122.046;2022-09-03T01:15:48;100622.47;;;23.63;63.90
66543;BME280;53395;37.360;-122.046;2022-09-03T01:24:03;100639.75;;;22.59;69.68
66543;BME280;53395;37.360;-122.046;2022-09-03T01:37:43;100644.78;;;22.26;75.08
66543;BME280;53395;37.360;-122.046;2022-09-03T01:46:40;100648.22;;;22.01;76.83
66543;BME280;53395;37.360;-122.046;2022-09-03T01:51:36;100643.41;;;21.40;77.25
66543;BME280;53395;37.360;-122.046;2022-09-03T01:59:42;100654.00;;;21.26;81.00
66543;BME280;53395;37.360;-122.046;2022-09-03T02:02:18;100643.72;;;21.21;80.38
66543;BME280;53395;37.360;-122.046;2022-09-03T02:07:29;100653.91;;;21.00;83.63
66543;BME280;53395;37.360;-122.046;2022-09-03T02:09:59;100658.09;;;20.90;84.70
66543;BME280;53395;37.360;-122.046;2022-09-03T02:12:29;100653.13;;;21.13;83.85
66543;BME280;53395;37.360;-122.046;2022-09-03T02:15:00;100650.81;;;20.79;85.78
66543;BME280;53395;37.360;-122.046;2022-09-03T02:17:30;100640.75;;;20.84;86.53
66543;BME280;53395;37.360;-122.046;2022-09-03T02:19:58;100649.66;;;20.69;87.76
66543;BME280;53395;37.360;-122.046;2022-09-03T02:22:27;100647.94;;;20.82;88.09
66543;BME280;53395;37.360;-122.046;2022-09-03T02:24:53;100639.78;;;20.71;88.35
66543;BME280;53395;37.360;-122.046;2022-09-03T02:27:20;100651.50;;;20.53;89.70
66543;BME280;53395;37.360;-122.046;2022-09-03T02:29:46;100646.31;;;20.37;90.95
66543;BME280;53395;37.360;-122.046;2022-09-03T02:32:13;100650.09;;;20.33;91.41
66543;BME280;53395;37.360;-122.046;2022-09-03T02:34:41;100648.19;;;20.20;92.82
66543;BME280;53395;37.360;-122.046;2022-09-03T02:37:16;100650.72;;;20.22;92.59
66543;BME280;53395;37.360;-122.046;2022-09-03T02:39:43;100663.31;;;20.04;93.86
66543;BME280;53395;37.360;-122.046;2022-09-03T02:42:11;100657.59;;;19.96;93.35
66543;BME280;53395;37.360;-122.046;2022-09-03T02:44:43;100664.66;;;20.11;92.88
66543;BME280;53395;37.360;-122.046;2022-09-03T02:47:13;100670.09;;;19.94;93.50
66543;BME280;53395;37.360;-122.046;2022-09-03T02:49:39;100664.53;;;19.98;93.67
66543;BME280;53395;37.360;-122.046;2022-09-03T02:52:08;100670.25;;;20.06;93.13
66543;BME280;53395;37.360;-122.046;2022-09-03T02:54:37;100672.16;;;19.89;94.76
66543;BME280;53395;37.360;-122.046;2022-09-03T02:57:08;100668.50;;;20.05;94.05
66543;BME280;53395;37.360;-122.046;2022-09-03T02:59:35;100671.44;;;19.71;96.18
66543;BME280;53395;37.360;-122.046;2022-09-03T03:02:02;100689.31;;;19.83;95.61
66543;BME280;53395;37.360;-122.046;2022-09-03T03:04:29;100688.53;;;19.81;95.60
66543;BME280;53395;37.360;-122.046;2022-09-03T03:06:56;100689.16;;;19.54;97.42
66543;BME280;53395;37.360;-122.046;2022-09-03T03:09:22;100695.03;;;19.59;97.14
66543;BME280;53395;37.360;-122.046;2022-09-03T03:11:48;100693.50;;;19.71;96.19
66543;BME280;53395;37.360;-122.046;2022-09-03T03:14:16;100695.38;;;19.85;95.38
66543;BME280;53395;37.360;-122.046;2022-09-03T03:16:43;100692.63;;;19.71;96.14
66543;BME280;53395;37.360;-122.046;2022-09-03T03:19:10;100695.72;;;19.63;96.67
66543;BME280;53395;37.360;-122.046;2022-09-03T03:21:36;100689.47;;;19.64;96.33
66543;BME280;53395;37.360;-122.046;2022-09-03T03:24:03;100690.25;;;19.50;96.70
66543;BME280;53395;37.360;-122.046;2022-09-03T03:26:29;100705.66;;;19.43;96.86
66543;BME280;53395;37.360;-122.046;2022-09-03T03:28:57;100699.50;;;19.43;95.80
66543;BME280;53395;37.360;-122.046;2022-09-03T03:31:24;100705.13;;;19.37;95.97
66543;BME280;53395;37.360;-122.046;2022-09-03T03:33:55;100713.53;;;19.45;95.39
66543;BME280;53395;37.360;-122.046;2022-09-03T03:36:23;100720.53;;;19.46;95.44
66543;BME280;53395;37.360;-122.046;2022-09-03T03:38:53;100723.94;;;19.48;95.76
66543;BME280;53395;37.360;-122.046;2022-09-03T03:41:22;100736.94;;;19.37;96.86
66543;BME280;53395;37.360;-122.046;2022-09-03T03:43:56;100729.34;;;19.31;97.76
66543;BME280;53395;37.360;-122.046;2022-09-03T03:46:24;100740.19;;;19.42;97.28
66543;BME280;53395;37.360;-122.046;2022-09-03T03:48:51;100746.25;;;19.60;96.75
66543;BME280;53395;37.360;-122.046;2022-09-03T03:51:18;100745.06;;;19.34;98.39
66543;BME280;53395;37.360;-122.046;2022-09-03T03:53:44;100741.72;;;19.46;97.90
66543;BME280;53395;37.360;-122.046;2022-09-03T03:56:13;100752.91;;;19.19;99.86
66543;BME280;53395;37.360;-122.046;2022-09-03T03:58:41;100747.69;;;19.18;99.68
66543;BME280;53395;37.360;-122.046;2022-09-03T04:01:17;100757.00;;;19.25;98.80
66543;BME280;53395;37.360;-122.046;2022-09-03T04:03:44;100762.25;;;19.27;99.29
66543;BME280;53395;37.360;-122.046;2022-09-03T04:06:13;100764.47;;;19.34;99.90
66543;BME280;53395;37.360;-122.046;2022-09-03T04:08:41;100769.34;;;19.26;99.62
66543;BME280;53395;37.360;-122.046;2022-09-03T04:11:10;100755.03;;;19.13;100.00
66543;BME280;53395;37.360;-122.046;2022-09-03T04:13:41;100768.97;;;19.32;98.67
66543;BME280;53395;37.360;-122.046;2022-09-03T04:16:09;100765.81;;;19.26;98.87
66543;BME280;53395;37.360;-122.046;2022-09-03T04:18:37;100767.31;;;19.14;98.77
66543;BME280;53395;37.360;-122.046;2022-09-03T04:21:10;100770.09;;;18.95;99.97
66543;BME280;53395;37.360;-122.046;2022-09-03T04:23:41;100772.38;;;19.03;99.55
66543;BME280;53395;37.360;-122.046;2022-09-03T04:26:10;100771.13;;;18.92;100.00
66543;BME280;53395;37.360;-122.046;2022-09-03T04:28:37;100772.84;;;18.93;100.00
66543;BME280;53395;37.360;-122.046;2022-09-03T04:31:08;100784.59;;;18.88;100.00
66543;BME280;53395;37.360;-122.046;2022-09-03T04:33:35;100796.47;;;18.80;100.00
66543;BME280;53395;37.360;-122.046;2022-09-03T04:36:07;100794.41;;;18.68;100.00
66543;BME280;53395;37.360;-122.046;2022-09-03T04:38:36;100810.47;;;18.65;100.00
66543;BME280;53395;37.360;-122.046;2022-09-03T04:41:04;100805.25;;;18.64;100.00
66543;BME280;53395;37.360;-122.046;2022-09-03T04:43:30;100813.81;;;18.69;100.00
66543;BME280;53395;37.360;-122.046;2022-09-03T04:46:03;100815.34;;;18.55;100.00
66543;BME280;53395;37.360;-122.046;2022-09-03T04:48:30;100815.91;;;18.62;100.00
66543;BME280;53395;37.360;-122.046;2022-09-03T04:51:13;100820.56;;;18.57;100.00
66543;BME280;53395;37.360;-122.046;2022-09-03T04:53:42;100821.13;;;18.81;100.00
66543;BME280;53395;37.360;-122.046;2022-09-03T04:56:16;100827.22;;;18.83;100.00
66543;BME280;53395;37.360;-122.046;2022-09-03T04:58:43;100835.69;;;18.55;100.00
66543;BME280;53395;37.360;-122.046;2022-09-03T05:01:12;100843.94;;;18.66;100.00
66543;BME280;53395;37.360;-122.046;2022-09-03T05:03:40;100850.31;;;18.62;100.00
66543;BME280;53395;37.360;-122.046;2022-09-03T05:06:06;100846.88;;;18.60;100.00
66543;BME280;53395;37.360;-122.046;2022-09-03T05:08:34;100845.19;;;18.76;100.00
66543;BME280;53395;37.360;-122.046;2022-09-03T05:11:05;100851.94;;;18.65;100.00
66543;BME280;53395;37.360;-122.046;2022-09-03T05:13:33;100855.31;;;18.68;100.00
66543;BME280;53395;37.360;-122.046;2022-09-03T05:16:04;100848.97;;;19.23;98.53
66543;BME280;53395;37.360;-122.046;2022-09-03T05:18:31;100849.19;;;19.03;100.00
66543;BME280;53395;37.360;-122.046;2022-09-03T05:21:05;100844.94;;;19.16;98.04
66543;BME280;53395;37.360;-122.046;2022-09-03T05:23:35;100846.09;;;19.93;95.35
66543;BME280;53395;37.360;-122.046;2022-09-03T05:26:04;100844.34;;;19.60;94.89
66543;BME280;53395;37.360;-122.046;2022-09-03T05:28:35;100847.19;;;19.73;95.95
66543;BME280;53395;37.360;-122.046;2022-09-03T05:33:33;100851.72;;;18.69;97.04
66543;BME280;53395;37.360;-122.046;2022-09-03T05:36:21;100857.06;;;18.50;100.00
66543;BME280;53395;37.360;-122.046;2022-09-03T05:38:48;100860.06;;;18.62;100.00
66543;BME280;53395;37.360;-122.046;2022-09-03T05:41:16;100863.59;;;18.43;99.12
66543;BME280;53395;37.360;-122.046;2022-09-03T05:43:43;100865.84;;;18.33;99.63
66543;BME280;53395;37.360;-122.046;2022-09-03T05:46:12;100867.25;;;18.41;92.73
66543;BME280;53395;37.360;-122.046;2022-09-03T05:48:40;100864.94;;;18.34;94.12
66543;BME280;53395;37.360;-122.046;2022-09-03T05:51:10;100868.41;;;17.99;97.74
66543;BME280;53395;37.360;-122.046;2022-09-03T05:53:38;100876.53;;;18.13;96.10
66543;BME280;53395;37.360;-122.046;2022-09-03T05:56:07;100859.25;;;18.06;94.18
66543;BME280;53395;37.360;-122.046;2022-09-03T05:58:38;100861.16;;;18.21;91.75
66543;BME280;53395;37.360;-122.046;2022-09-03T06:01:21;100863.75;;;18.04;94.85
66543;BME280;53395;37.360;-122.046;2022-09-03T06:03:54;100869.22;;;17.61;93.69
66543;BME280;53395;37.360;-122.046;2022-09-03T06:06:22;100874.13;;;17.89;91.38
66543;BME280;53395;37.360;-122.046;2022-09-03T06:08:55;100874.50;;;17.82;91.72
66543;BME280;53395;37.360;-122.046;2022-09-03T06:11:24;100874.09;;;17.70;94.00
66543;BME280;53395;37.360;-122.046;2022-09-03T06:14:01;100879.81;;;17.80;92.22
66543;BME280;53395;37.360;-122.046;2022-09-03T06:16:28;100879.31;;;17.53;94.73
66543;BME280;53395;37.360;-122.046;2022-09-03T06:18:54;100878.00;;;17.43;95.80
66543;BME280;53395;37.360;-122.046;2022-09-03T06:21:21;100875.50;;;17.59;94.02
66543;BME280;53395;37.360;-122.046;2022-09-03T06:23:53;100888.44;;;17.46;94.94
66543;BME280;53395;37.360;-122.046;2022-09-03T06:26:22;100888.06;;;17.35;96.34
66543;BME280;53395;37.360;-122.046;2022-09-03T06:28:53;100881.38;;;17.26;95.81
66543;BME280;53395;37.360;-122.046;2022-09-03T06:31:20;100886.81;;;17.23;94.96
66543;BME280;53395;37.360;-122.046;2022-09-03T06:33:47;100884.22;;;17.21;96.12
66543;BME280;53395;37.360;-122.046;2022-09-03T06:36:16;100892.88;;;17.25;95.29
66543;BME280;53395;37.360;-122.046;2022-09-03T06:38:44;100878.13;;;17.40;96.11
66543;BME280;53395;37.360;-122.046;2022-09-03T06:41:16;100889.03;;;17.32;96.98
66543;BME280;53395;37.360;-122.046;2022-09-03T06:43:46;100881.97;;;17.32;97.32
66543;BME280;53395;37.360;-122.046;2022-09-03T06:46:16;100890.91;;;17.30;97.45
66543;BME280;53395;37.360;-122.046;2022-09-03T06:48:43;100888.41;;;17.27;98.28
66543;BME280;53395;37.360;-122.046;2022-09-03T06:51:13;100879.88;;;17.41;96.76
66543;BME280;53395;37.360;-122.046;2022-09-03T06:53:50;100886.09;;;17.59;95.07
66543;BME280;53395;37.360;-122.046;2022-09-03T06:56:19;100888.94;;;17.15;96.78
66543;BME280;53395;37.360;-122.046;2022-09-03T06:58:53;100886.59;;;17.48;94.30
66543;BME280;53395;37.360;-122.046;2022-09-03T07:01:22;100887.47;;;17.28;95.07
66543;BME280;53395;37.360;-122.046;2022-09-03T07:03:55;100880.13;;;17.35;95.16
66543;BME280;53395;37.360;-122.046;2022-09-03T07:06:23;100888.59;;;17.43;93.75
66543;BME280;53395;37.360;-122.046;2022-09-03T07:08:50;100885.94;;;17.43;94.06
66543;BME280;53395;37.360;-122.046;2022-09-03T07:11:18;100883.56;;;17.37;95.87
66543;BME280;53395;37.360;-122.046;2022-09-03T07:13:46;100880.88;;;17.38;96.72
66543;BME280;53395;37.360;-122.046;2022-09-03T07:16:18;100887.28;;;17.51;96.43
66543;BME280;53395;37.360;-122.046;2022-09-03T07:18:45;100881.84;;;17.36;97.09
66543;BME280;53395;37.360;-122.046;2022-09-03T07:21:14;100889.78;;;17.36;97.85
66543;BME280;53395;37.360;-122.046;2022-09-03T07:23:41;100884.75;;;17.29;98.69
66543;BME280;53395;37.360;-122.046;2022-09-03T07:26:13;100881.31;;;17.27;98.59
66543;BME280;53395;37.360;-122.046;2022-09-03T07:28:40;100880.34;;;17.30;98.54
66543;BME280;53395;37.360;-122.046;2022-09-03T07:31:13;100888.25;;;17.30;98.39
66543;BME280;53395;37.360;-122.046;2022-09-03T07:33:40;100875.25;;;17.25;98.92
66543;BME280;53395;37.360;-122.046;2022-09-03T07:36:09;100875.25;;;17.25;97.96
66543;BME280;53395;37.360;-122.046;2022-09-03T07:38:37;100877.38;;;17.17;100.00
66543;BME280;53395;37.360;-122.046;2022-09-03T07:41:05;100882.53;;;17.00;100.00
66543;BME280;53395;37.360;-122.046;2022-09-03T07:43:43;100889.00;;;17.13;99.90
66543;BME280;53395;37.360;-122.046;2022-09-03T07:46:13;100882.81;;;16.94;100.00
66543;BME280;53395;37.360;-122.046;2022-09-03T07:48:41;100882.06;;;16.90;100.00
66543;BME280;53395;37.360;-122.046;2022-09-03T07:51:08;100883.84;;;16.89;100.00
66543;BME280;53395;37.360;-122.046;2022-09-03T07:53:35;100886.38;;;16.70;100.00
66543;BME280;53395;37.360;-122.046;2022-09-03T07:56:02;100881.16;;;16.69;100.00
66543;BME280;53395;37.360;-122.046;2022-09-03T07:58:29;100892.50;;;16.71;100.00
66543;BME280;53395;37.360;-122.046;2022-09-03T08:00:57;100889.81;;;16.73;100.00
66543;BME280;53395;37.360;-122.046;2022-09-03T08:03:23;100894.06;;;16.55;100.00
66543;BME280;53395;37.360;-122.046;2022-09-03T08:05:49;100886.47;;;16.47;100.00
66543;BME280;53395;37.360;-122.046;2022-09-03T08:08:15;100880.34;;;16.46;100.00
66543;BME280;53395;37.360;-122.046;2022-09-03T08:10:42;100886.97;;;16.35;100.00
66543;BME280;53395;37.360;-122.046;2022-09-03T08:13:09;100891.19;;;16.39;100.00
66543;BME280;53395;37.360;-122.046;2022-09-03T08:15:36;100887.19;;;16.28;100.00
66543;BME280;53395;37.360;-122.046;2022-09-03T08:18:05;100888.91;;;16.30;100.00
66543;BME280;53395;37.360;-122.046;2022-09-03T08:20:31;100880.47;;;16.21;100.00
66543;BME280;53395;37.360;-122.046;2022-09-03T08:23:01;100898.16;;;16.18;100.00
66543;BME280;53395;37.360;-122.046;2022-09-03T08:25:28;100899.84;;;16.20;100.00
66543;BME280;53395;37.360;-122.046;2022-09-03T08:27:57;100895.06;;;16.30;100.00
66543;BME280;53395;37.360;-122.046;2022-09-03T08:30:25;100899.84;;;16.20;100.00
66543;BME280;53395;37.360;-122.046;2022-09-03T08:32:52;100899.03;;;16.18;100.00
66543;BME280;53395;37.360;-122.046;2022-09-03T08:35:19;100897.13;;;16.22;100.00
66543;BME280;53395;37.360;-122.046;2022-09-03T08:37:46;100904.94;;;16.01;100.00
66543;BME280;53395;37.360;-122.046;2022-09-03T08:40:16;100903.03;;;16.06;100.00
66543;BME280;53395;37.360;-122.046;2022-09-03T08:42:48;100903.84;;;15.85;100.00
66543;BME280;53395;37.360;-122.046;2022-09-03T08:45:19;100898.31;;;15.91;100.00
66543;BME280;53395;37.360;-122.046;2022-09-03T08:48:00;100886.13;;;15.89;100.00
66543;BME280;53395;37.360;-122.046;2022-09-03T08:50:33;100893.34;;;15.83;100.00
66543;BME280;53395;37.360;-122.046;2022-09-03T08:58:14;100889.50;;;15.69;100.00
66543;BME280;53395;37.360;-122.046;2022-09-03T09:03:50;100893.81;;;15.71;100.00
66543;BME280;53395;37.360;-122.046;2022-09-03T09:15:04;100890.81;;;15.57;100.00
66543;BME280;53395;37.360;-122.046;2022-09-03T09:23:14;100870.25;;;15.43;100.00
66543;BME280;53395;37.360;-122.046;2022-09-03T09:25:53;100881.38;;;15.50;100.00
66543;BME280;53395;37.360;-122.046;2022-09-03T09:28:24;100885.00;;;15.47;100.00
66543;BME280;53395;37.360;-122.046;2022-09-03T09:30:54;100883.13;;;15.51;100.00
66543;BME280;53395;37.360;-122.046;2022-09-03T09:33:21;100893.31;;;15.60;100.00
66543;BME280;53395;37.360;-122.046;2022-09-03T09:35:49;100882.31;;;15.49;100.00
66543;BME280;53395;37.360;-122.046;2022-09-03T09:38:30;100890.91;;;15.54;100.00
66543;BME280;53395;37.360;-122.046;2022-09-03T09:41:08;100885.53;;;15.57;100.00
66543;BME280;53395;37.360;-122.046;2022-09-03T09:43:34;100886.88;;;15.69;100.00
66543;BME280;53395;37.360;-122.046;2022-09-03T09:46:08;100885.25;;;15.64;100.00
66543;BME280;53395;37.360;-122.046;2022-09-03T09:48:41;100889.06;;;15.32;100.00
66543;BME280;53395;37.360;-122.046;2022-09-03T09:51:37;100885.97;;;15.44;100.00
66543;BME280;53395;37.360;-122.046;2022-09-03T09:54:15;100888.94;;;15.35;100.00
66543;BME280;53395;37.360;-122.046;2022-09-03T09:56:57;100889.06;;;15.32;100.00
66543;BME280;53395;37.360;-122.046;2022-09-03T09:59:23;100884.66;;;15.33;100.00
66543;BME280;53395;37.360;-122.046;2022-09-03T10:01:49;100881.97;;;15.34;100.00
66543;BME280;53395;37.360;-122.046;2022-09-03T10:04:24;100877.03;;;15.25;100.00
66543;BME280;53395;37.360;-122.046;2022-09-03T10:07:21;100875.53;;;15.18;100.00
66543;BME280;53395;37.360;-122.046;2022-09-03T10:09:41;100873.41;;;15.02;100.00
66543;BME280;53395;37.360;-122.046;2022-09-03T10:14:54;100891.53;;;15.12;100.00
66543;BME280;53395;37.360;-122.046;2022-09-03T10:20:30;100883.63;;;15.12;100.00
66543;BME280;53395;37.360;-122.046;2022-09-03T10:28:23;100875.97;;;15.06;100.00
66543;BME280;53395;37.360;-122.046;2022-09-03T10:33:59;100870.31;;;15.16;100.00
66543;BME280;53395;37.360;-122.046;2022-09-03T10:36:38;100862.69;;;15.09;100.00
66543;BME280;53395;37.360;-122.046;2022-09-03T10:41:55;100875.19;;;15.02;100.00
66543;BME280;53395;37.360;-122.046;2022-09-03T10:53:15;100890.09;;;14.76;100.00
66543;BME280;53395;37.360;-122.046;2022-09-03T10:58:57;100886.97;;;14.92;100.00
66543;BME280;53395;37.360;-122.046;2022-09-03T11:06:54;100892.19;;;14.93;100.00
66543;BME280;53395;37.360;-122.046;2022-09-03T11:09:47;100893.25;;;14.88;100.00
66543;BME280;53395;37.360;-122.046;2022-09-03T11:20:46;100889.66;;;14.90;100.00
66543;BME280;53395;37.360;-122.046;2022-09-03T11:23:15;100888.44;;;14.74;100.00
66543;BME280;53395;37.360;-122.046;2022-09-03T11:25:59;100890.91;;;14.78;100.00
66543;BME280;53395;37.360;-122.046;2022-09-03T11:34:12;100881.47;;;14.73;100.00
66543;BME280;53395;37.360;-122.046;2022-09-03T11:36:41;100887.25;;;14.84;100.00
66543;BME280;53395;37.360;-122.046;2022-09-03T11:39:35;100884.50;;;14.87;100.00
66543;BME280;53395;37.360;-122.046;2022-09-03T11:42:12;100877.75;;;14.78;100.00
66543;BME280;53395;37.360;-122.046;2022-09-03T11:44:50;100880.31;;;14.82;100.00
66543;BME280;53395;37.360;-122.046;2022-09-03T11:49:47;100883.28;;;14.71;100.00
66543;BME280;53395;37.360;-122.046;2022-09-03T11:52:35;100876.50;;;14.64;100.00
66543;BME280;53395;37.360;-122.046;2022-09-03T11:55:06;100886.44;;;14.82;100.00
66543;BME280;53395;37.360;-122.046;2022-09-03T11:57:40;100877.38;;;14.64;100.00
66543;BME280;53395;37.360;-122.046;2022-09-03T12:00:11;100884.28;;;14.67;100.00
66543;BME280;53395;37.360;-122.046;2022-09-03T12:02:55;100885.38;;;14.61;100.00
66543;BME280;53395;37.360;-122.046;2022-09-03T12:05:45;100887.22;;;14.57;100.00
66543;BME280;53395;37.360;-122.046;2022-09-03T12:16:31;100889.13;;;14.52;100.00
66543;BME280;53395;37.360;-122.046;2022-09-03T12:19:02;100890.47;;;14.66;100.00
66543;BME280;53395;37.360;-122.046;2022-09-03T12:21:37;100887.34;;;14.54;100.00
66543;BME280;53395;37.360;-122.046;2022-09-03T12:24:05;100887.78;;;14.67;100.00
66543;BME280;53395;37.360;-122.046;2022-09-03T12:26:39;100896.41;;;14.44;100.00
66543;BME280;53395;37.360;-122.046;2022-09-03T12:29:06;100890.19;;;14.47;100.00
66543;BME280;53395;37.360;-122.046;2022-09-03T12:31:47;100880.03;;;14.34;100.00
66543;BME280;53395;37.360;-122.046;2022-09-03T12:34:17;100874.59;;;14.41;100.00
66543;BME280;53395;37.360;-122.046;2022-09-03T12:36:51;100887.31;;;14.56;100.00
66543;BME280;53395;37.360;-122.046;2022-09-03T12:39:20;100890.28;;;14.44;100.00
66543;BME280;53395;37.360;-122.046;2022-09-03T12:42:04;100892.00;;;14.45;100.00
66543;BME280;53395;37.360;-122.046;2022-09-03T12:47:13;100886.03;;;14.40;100.00
66543;BME280;53395;37.360;-122.046;2022-09-03T12:49:44;100876.81;;;14.54;100.00
66543;BME280;53395;37.360;-122.046;2022-09-03T12:52:33;100872.00;;;14.39;100.00
66543;BME280;53395;37.360;-122.046;2022-09-03T12:57:52;100885.75;;;14.49;100.00
66543;BME280;53395;37.360;-122.046;2022-09-03T13:00:21;100881.50;;;14.45;100.00
66543;BME280;53395;37.360;-122.046;2022-09-03T13:05:34;100885.25;;;14.36;100.00
66543;BME280;53395;37.360;-122.046;2022-09-03T13:08:03;100882.06;;;14.26;100.00
66543;BME280;53395;37.360;-122.046;2022-09-03T13:10:37;100883.00;;;14.25;100.00
66543;BME280;53395;37.360;-122.046;2022-09-03T13:13:36;100892.72;;;14.22;100.00
66543;BME280;53395;37.360;-122.046;2022-09-03T13:29:46;100892.25;;;14.37;100.00
66543;BME280;53395;37.360;-122.046;2022-09-03T13:35:07;100896.56;;;14.11;100.00
66543;BME280;53395;37.360;-122.046;2022-09-03T13:38:36;100893.66;;;14.21;100.00
66543;BME280;53395;37.360;-122.046;2022-09-03T13:40:37;100898.03;;;14.20;100.00
66543;BME280;53395;37.360;-122.046;2022-09-03T13:46:24;100916.09;;;14.31;100.00
66543;BME280;53395;37.360;-122.046;2022-09-03T13:49:12;100922.47;;;14.24;100.00
66543;BME280;53395;37.360;-122.046;2022-09-03T13:52:03;100923.28;;;14.26;100.00
66543;BME280;53395;37.360;-122.046;2022-09-03T13:54:34;100919.66;;;14.30;100.00
66543;BME280;53395;37.360;-122.046;2022-09-03T13:57:09;100924.16;;;14.25;100.00
66543;BME280;53395;37.360;-122.046;2022-09-03T13:59:51;100911.09;;;14.23;100.00
66543;BME280;53395;37.360;-122.046;2022-09-03T14:02:30;100919.94;;;14.21;100.00
66543;BME280;53395;37.360;-122.046;2022-09-03T14:07:53;100922.13;;;14.34;100.00
66543;BME280;53395;37.360;-122.046;2022-09-03T14:15:49;100930.34;;;14.52;100.00
66543;BME280;53395;37.360;-122.046;2022-09-03T14:18:40;100928.97;;;14.68;100.00
66543;BME280;53395;37.360;-122.046;2022-09-03T14:21:33;100923.25;;;14.82;100.00
66543;BME280;53395;37.360;-122.046;2022-09-03T14:24:33;100924.94;;;14.85;100.00
66543;BME280;53395;37.360;-122.046;2022-09-03T14:26:58;100927.91;;;15.00;100.00
66543;BME280;53395;37.360;-122.046;2022-09-03T14:29:28;100931.78;;;15.15;100.00
66543;BME280;53395;37.360;-122.046;2022-09-03T14:40:15;100929.41;;;15.83;100.00
66543;BME280;53395;37.360;-122.046;2022-09-03T14:43:05;100937.22;;;16.08;100.00
66543;BME280;53395;37.360;-122.046;2022-09-03T14:48:47;100941.50;;;16.56;99.63
66543;BME280;53395;37.360;-122.046;2022-09-03T14:51:25;100941.66;;;16.74;100.00
66543;BME280;53395;37.360;-122.046;2022-09-03T14:57:29;100950.88;;;17.07;100.00
66543;BME280;53395;37.360;-122.046;2022-09-03T15:00:14;100949.44;;;17.60;99.13
66543;BME280;53395;37.360;-122.046;2022-09-03T15:05:46;100951.34;;;17.77;100.00
66543;BME280;53395;37.360;-122.046;2022-09-03T15:08:42;100953.25;;;18.13;97.54
66543;BME280;53395;37.360;-122.046;2022-09-03T15:11:23;100951.31;;;17.98;96.22
66543;BME280;53395;37.360;-122.046;2022-09-03T15:16:50;100952.19;;;17.98;97.24
66543;BME280;53395;37.360;-122.046;2022-09-03T15:19:35;100957.03;;;18.07;96.65
66543;BME280;53395;37.360;-122.046;2022-09-03T15:30:22;100959.47;;;18.86;92.72
66543;BME280;53395;37.360;-122.046;2022-09-03T15:41:04;100952.56;;;19.52;85.87
66543;BME280;53395;37.360;-122.046;2022-09-03T15:43:33;100952.13;;;19.43;87.21
66543;BME280;53395;37.360;-122.046;2022-09-03T15:46:13;100949.00;;;19.70;85.55
66543;BME280;53395;37.360;-122.046;2022-09-03T15:48:55;100942.53;;;19.92;84.22
66543;BME280;53395;37.360;-122.046;2022-09-03T15:51:35;100942.97;;;20.32;82.03
66543;BME280;53395;37.360;-122.046;2022-09-03T15:54:15;100933.56;;;20.42;81.62
66543;BME280;53395;37.360;-122.046;2022-09-03T15:57:00;100933.81;;;20.37;81.95
66543;BME280;53395;37.360;-122.046;2022-09-03T15:59:44;100931.72;;;20.74;78.84
66543;BME280;53395;37.360;-122.046;2022-09-03T16:02:17;100929.56;;;20.81;76.64
66543;BME280;53395;37.360;-122.046;2022-09-03T16:10:18;100922.94;;;21.18;76.32
66543;BME280;53395;37.360;-122.046;2022-09-03T16:13:02;100915.66;;;21.22;75.27
66543;BME280;53395;37.360;-122.046;2022-09-03T16:15:48;100903.25;;;21.65;74.00
66543;BME280;53395;37.360;-122.046;2022-09-03T16:18:27;100908.25;;;21.99;73.47
66543;BME280;53395;37.360;-122.046;2022-09-03T16:26:09;100914.78;;;22.22;70.46
66543;BME280;53395;37.360;-122.046;2022-09-03T16:37:06;100921.53;;;22.94;66.94
66543;BME280;53395;37.360;-122.046;2022-09-03T16:50:52;100943.47;;;23.89;63.25
66543;BME280;53395;37.360;-122.046;2022-09-03T16:59:10;100950.66;;;23.76;62.97